sensor_id;sensor_type;location;lat;lon;timestamp;pressure;altitude;pressure_sealevel;temperature;humidity
3748;BME280;1889;50.058;8.688;2024-01-11T00:00:07;101532.55;;;2.76;47.59
3748;BME280;1889;50.058;8.688;2024-01-11T00:02:36;101521.25;;;2.51;47.93
3748;BME280;1889;50.058;8.688;2024-01-11T00:05:06;101524.55;;;2.36;48.15
3748;BME280;1889;50.058;8.688;2024-01-11T00:07:35;101521.47;;;2.46;48.10
3748;BME280;1889;50.058;8.688;2024-01-11T00:10:10;101530.75;;;2.28;48.26
3748;BME280;1889;50.058;8.688;2024-01-11T00:12:36;101532.81;;;2.37;48.35
3748;BME280;1889;50.058;8.688;2024-01-11T00:15:08;101532.09;;;2.52;48.17
3748;BME280;1889;50.058;8.688;2024-01-11T00:17:37;101532.41;;;2.49;48.12
3748;BME280;1889;50.058;8.688;2024-01-11T00:20:11;101533.64;;;2.58;48.01
3748;BME280;1889;50.058;8.688;2024-01-11T00:22:43;101536.52;;;2.66;47.95
3748;BME280;1889;50.058;8.688;2024-01-11T00:25:12;101541.44;;;2.58;48.04
3748;BME280;1889;50.058;8.688;2024-01-11T00:27:40;101532.14;;;2.65;47.82
3748;BME280;1889;50.058;8.688;2024-01-11T00:30:10;101531.07;;;2.60;47.85
3748;BME280;1889;50.058;8.688;2024-01-11T00:32:39;101534.11;;;2.59;47.80
3748;BME280;1889;50.058;8.688;2024-01-11T00:35:07;101530.44;;;2.65;47.81
3748;BME280;1889;50.058;8.688;2024-01-11T00:37:36;101533.80;;;2.63;47.83
3748;BME280;1889;50.058;8.688;2024-01-11T00:40:06;101529.13;;;2.65;47.93
3748;BME280;1889;50.058;8.688;2024-01-11T00:42:35;101525.66;;;2.65;47.97
3748;BME280;1889;50.058;8.688;2024-01-11T00:45:04;101530.02;;;2.66;48.04
3748;BME280;1889;50.058;8.688;2024-01-11T00:47:33;101533.60;;;2.69;47.85
3748;BME280;1889;50.058;8.688;2024-01-11T00:50:02;101534.39;;;2.67;47.92
3748;BME280;1889;50.058;8.688;2024-01-11T00:52:31;101541.72;;;2.66;47.97
3748;BME280;1889;50.058;8.688;2024-01-11T00:54:59;101534.94;;;2.47;48.36
3748;BME280;1889;50.058;8.688;2024-01-11T00:57:29;101538.36;;;2.57;48.32
3748;BME280;1889;50.058;8.688;2024-01-11T00:59:58;101540.55;;;2.58;48.31
3748;BME280;1889;50.058;8.688;2024-01-11T01:02:27;101546.50;;;2.66;48.17
3748;BME280;1889;50.058;8.688;2024-01-11T01:04:56;101545.70;;;2.80;47.86
3748;BME280;1889;50.058;8.688;2024-01-11T01:07:25;101546.73;;;2.85;47.59
3748;BME280;1889;50.058;8.688;2024-01-11T01:09:55;101553.63;;;2.96;47.14
3748;BME280;1889;50.058;8.688;2024-01-11T01:12:23;101549.52;;;2.90;47.32
3748;BME280;1889;50.058;8.688;2024-01-11T01:14:56;101547.76;;;2.78;47.74
3748;BME280;1889;50.058;8.688;2024-01-11T01:17:25;101550.84;;;2.79;47.82
3748;BME280;1889;50.058;8.688;2024-01-11T01:19:54;101546.52;;;2.79;47.96
3748;BME280;1889;50.058;8.688;2024-01-11T01:22:22;101554.38;;;2.92;47.44
3748;BME280;1889;50.058;8.688;2024-01-11T01:24:51;101546.27;;;2.84;47.45
3748;BME280;1889;50.058;8.688;2024-01-11T01:27:20;101548.37;;;2.71;47.87
3748;BME280;1889;50.058;8.688;2024-01-11T01:29:49;101547.39;;;2.67;47.99
3748;BME280;1889;50.058;8.688;2024-01-11T01:32:18;101541.91;;;2.48;48.32
3748;BME280;1889;50.058;8.688;2024-01-11T01:34:47;101543.55;;;2.46;48.54
3748;BME280;1889;50.058;8.688;2024-01-11T01:37:16;101539.25;;;2.47;48.65
3748;BME280;1889;50.058;8.688;2024-01-11T01:39:44;101545.20;;;2.44;48.85
3748;BME280;1889;50.058;8.688;2024-01-11T01:42:14;101549.64;;;2.58;48.78
3748;BME280;1889;50.058;8.688;2024-01-11T01:44:43;101548.28;;;2.56;48.94
3748;BME280;1889;50.058;8.688;2024-01-11T01:47:11;101542.34;;;2.60;48.83
3748;BME280;1889;50.058;8.688;2024-01-11T01:49:40;101548.41;;;2.59;49.13
3748;BME280;1889;50.058;8.688;2024-01-11T01:52:11;101558.23;;;2.68;48.89
3748;BME280;1889;50.058;8.688;2024-01-11T01:54:42;101554.64;;;2.64;48.93
3748;BME280;1889;50.058;8.688;2024-01-11T01:57:12;101556.89;;;2.66;48.90
3748;BME280;1889;50.058;8.688;2024-01-11T01:59:42;101561.20;;;2.66;48.87
3748;BME280;1889;50.058;8.688;2024-01-11T02:02:11;101560.53;;;2.83;48.26
3748;BME280;1889;50.058;8.688;2024-01-11T02:04:40;101558.00;;;2.73;48.43
3748;BME280;1889;50.058;8.688;2024-01-11T02:07:10;101563.73;;;2.76;48.49
3748;BME280;1889;50.058;8.688;2024-01-11T02:09:43;101563.41;;;2.90;47.76
3748;BME280;1889;50.058;8.688;2024-01-11T02:12:12;101563.13;;;2.83;47.93
3748;BME280;1889;50.058;8.688;2024-01-11T02:14:42;101563.95;;;2.82;47.87
3748;BME280;1889;50.058;8.688;2024-01-11T02:17:11;101564.59;;;2.76;48.03
3748;BME280;1889;50.058;8.688;2024-01-11T02:19:41;101561.92;;;2.86;47.62
3748;BME280;1889;50.058;8.688;2024-01-11T02:22:29;101561.23;;;2.79;47.83
3748;BME280;1889;50.058;8.688;2024-01-11T02:24:53;101561.36;;;2.82;47.70
3748;BME280;1889;50.058;8.688;2024-01-11T02:27:22;101564.91;;;2.73;48.07
3748;BME280;1889;50.058;8.688;2024-01-11T02:29:51;101560.25;;;2.64;48.42
3748;BME280;1889;50.058;8.688;2024-01-11T02:32:20;101557.30;;;2.66;48.19
3748;BME280;1889;50.058;8.688;2024-01-11T02:34:50;101558.73;;;2.58;48.54
3748;BME280;1889;50.058;8.688;2024-01-11T02:37:19;101560.61;;;2.62;48.62
3748;BME280;1889;50.058;8.688;2024-01-11T02:39:48;101558.73;;;2.58;48.54
3748;BME280;1889;50.058;8.688;2024-01-11T02:42:17;101570.11;;;2.61;48.61
3748;BME280;1889;50.058;8.688;2024-01-11T02:44:47;101571.34;;;2.60;48.53
3748;BME280;1889;50.058;8.688;2024-01-11T02:47:16;101577.11;;;2.51;48.70
3748;BME280;1889;50.058;8.688;2024-01-11T02:49:45;101570.42;;;2.58;48.39
3748;BME280;1889;50.058;8.688;2024-01-11T02:52:14;101570.30;;;2.55;48.59
3748;BME280;1889;50.058;8.688;2024-01-11T02:54:43;101570.36;;;2.45;48.86
3748;BME280;1889;50.058;8.688;2024-01-11T02:57:11;101571.49;;;2.41;48.94
3748;BME280;1889;50.058;8.688;2024-01-11T02:59:43;101563.39;;;2.44;48.94
3748;BME280;1889;50.058;8.688;2024-01-11T03:02:11;101563.39;;;2.44;49.00
3748;BME280;1889;50.058;8.688;2024-01-11T03:04:39;101563.17;;;2.49;48.78
3748;BME280;1889;50.058;8.688;2024-01-11T03:07:09;101554.02;;;2.48;48.90
3748;BME280;1889;50.058;8.688;2024-01-11T03:09:37;101560.09;;;2.48;49.06
3748;BME280;1889;50.058;8.688;2024-01-11T03:12:06;101551.00;;;2.48;48.95
3748;BME280;1889;50.058;8.688;2024-01-11T03:14:35;101546.88;;;2.31;49.03
3748;BME280;1889;50.058;8.688;2024-01-11T03:17:05;101551.48;;;2.16;49.37
3748;BME280;1889;50.058;8.688;2024-01-11T03:19:38;101546.88;;;2.31;49.14
3748;BME280;1889;50.058;8.688;2024-01-11T03:22:04;101542.92;;;2.41;48.97
3748;BME280;1889;50.058;8.688;2024-01-11T03:24:38;101541.91;;;2.48;48.93
3748;BME280;1889;50.058;8.688;2024-01-11T03:27:07;101537.69;;;2.52;48.86
3748;BME280;1889;50.058;8.688;2024-01-11T03:29:36;101540.13;;;2.47;48.95
3748;BME280;1889;50.058;8.688;2024-01-11T03:32:05;101542.03;;;2.51;48.88
3748;BME280;1889;50.058;8.688;2024-01-11T03:34:34;101530.66;;;2.60;48.77
3748;BME280;1889;50.058;8.688;2024-01-11T03:37:03;101536.45;;;2.53;48.77
3748;BME280;1889;50.058;8.688;2024-01-11T03:39:34;101541.02;;;2.59;48.64
3748;BME280;1889;50.058;8.688;2024-01-11T03:42:03;101541.02;;;2.48;48.76
3748;BME280;1889;50.058;8.688;2024-01-11T03:44:32;101535.19;;;2.31;48.97
3748;BME280;1889;50.058;8.688;2024-01-11T03:47:01;101535.89;;;2.38;48.92
3748;BME280;1889;50.058;8.688;2024-01-11T03:49:30;101535.95;;;2.40;48.78
3748;BME280;1889;50.058;8.688;2024-01-11T03:51:58;101533.25;;;2.25;48.79
3748;BME280;1889;50.058;8.688;2024-01-11T03:54:27;101546.53;;;2.33;48.76
3748;BME280;1889;50.058;8.688;2024-01-11T03:56:56;101539.31;;;2.48;48.49
3748;BME280;1889;50.058;8.688;2024-01-11T03:59:24;101540.60;;;2.37;48.58
3748;BME280;1889;50.058;8.688;2024-01-11T04:01:53;101547.94;;;2.25;48.72
3748;BME280;1889;50.058;8.688;2024-01-11T04:04:22;101555.48;;;2.30;48.66
3748;BME280;1889;50.058;8.688;2024-01-11T04:06:52;101544.20;;;2.29;48.79
3748;BME280;1889;50.058;8.688;2024-01-11T04:09:20;101538.86;;;2.25;48.89
3748;BME280;1889;50.058;8.688;2024-01-11T04:11:49;101543.16;;;2.24;48.90
3748;BME280;1889;50.058;8.688;2024-01-11T04:14:18;101549.34;;;2.28;48.86
3748;BME280;1889;50.058;8.688;2024-01-11T04:16:47;101552.06;;;2.31;48.85
3748;BME280;1889;50.058;8.688;2024-01-11T04:19:16;101549.95;;;2.32;48.77
3748;BME280;1889;50.058;8.688;2024-01-11T04:21:44;101551.78;;;2.35;48.78
3748;BME280;1889;50.058;8.688;2024-01-11T04:24:13;101550.47;;;2.23;49.07
3748;BME280;1889;50.058;8.688;2024-01-11T04:26:42;101554.31;;;2.33;49.04
3748;BME280;1889;50.058;8.688;2024-01-11T04:29:11;101561.36;;;1.93;49.39
3748;BME280;1889;50.058;8.688;2024-01-11T04:31:39;101554.36;;;2.01;49.28
3748;BME280;1889;50.058;8.688;2024-01-11T04:34:08;101564.59;;;2.19;49.11
3748;BME280;1889;50.058;8.688;2024-01-11T04:36:40;101561.52;;;2.18;49.05
3748;BME280;1889;50.058;8.688;2024-01-11T04:39:09;101558.80;;;2.26;48.82
3748;BME280;1889;50.058;8.688;2024-01-11T04:41:39;101556.38;;;2.30;48.84
3748;BME280;1889;50.058;8.688;2024-01-11T04:44:08;101563.59;;;2.26;48.92
3748;BME280;1889;50.058;8.688;2024-01-11T04:46:38;101559.28;;;2.27;49.02
3748;BME280;1889;50.058;8.688;2024-01-11T04:49:07;101559.37;;;2.30;49.10
3748;BME280;1889;50.058;8.688;2024-01-11T04:51:35;101560.46;;;2.35;48.97
3748;BME280;1889;50.058;8.688;2024-01-11T04:54:04;101561.16;;;2.31;48.90
3748;BME280;1889;50.058;8.688;2024-01-11T04:56:33;101564.58;;;2.30;48.87
3748;BME280;1889;50.058;8.688;2024-01-11T04:59:02;101566.10;;;2.36;48.64
3748;BME280;1889;50.058;8.688;2024-01-11T05:01:30;101570.36;;;2.45;48.50
3748;BME280;1889;50.058;8.688;2024-01-11T05:04:00;101574.30;;;2.36;48.68
3748;BME280;1889;50.058;8.688;2024-01-11T05:06:29;101572.13;;;2.24;48.55
3748;BME280;1889;50.058;8.688;2024-01-11T05:08:58;101561.09;;;2.29;48.66
3748;BME280;1889;50.058;8.688;2024-01-11T05:11:27;101558.03;;;2.40;48.20
3748;BME280;1889;50.058;8.688;2024-01-11T05:13:56;101560.91;;;2.36;48.41
3748;BME280;1889;50.058;8.688;2024-01-11T05:16:27;101569.02;;;2.33;48.54
3748;BME280;1889;50.058;8.688;2024-01-11T05:18:57;101571.31;;;2.25;48.64
3748;BME280;1889;50.058;8.688;2024-01-11T05:21:26;101573.86;;;2.35;48.22
3748;BME280;1889;50.058;8.688;2024-01-11T05:23:55;101574.20;;;2.33;48.31
3748;BME280;1889;50.058;8.688;2024-01-11T05:26:23;101574.14;;;2.31;48.54
3748;BME280;1889;50.058;8.688;2024-01-11T05:28:52;101575.21;;;2.25;48.62
3748;BME280;1889;50.058;8.688;2024-01-11T05:31:21;101565.23;;;2.24;48.62
3748;BME280;1889;50.058;8.688;2024-01-11T05:33:50;101563.39;;;2.22;48.72
3748;BME280;1889;50.058;8.688;2024-01-11T05:36:18;101571.83;;;2.27;48.66
3748;BME280;1889;50.058;8.688;2024-01-11T05:38:47;101569.70;;;2.28;48.63
3748;BME280;1889;50.058;8.688;2024-01-11T05:41:17;101580.16;;;2.30;48.47
3748;BME280;1889;50.058;8.688;2024-01-11T05:43:45;101585.83;;;2.31;48.26
3748;BME280;1889;50.058;8.688;2024-01-11T05:46:15;101581.09;;;2.21;48.42
3748;BME280;1889;50.058;8.688;2024-01-11T05:48:43;101580.47;;;2.26;48.21
3748;BME280;1889;50.058;8.688;2024-01-11T05:51:12;101580.45;;;2.15;48.33
3748;BME280;1889;50.058;8.688;2024-01-11T05:53:42;101591.24;;;2.15;48.46
3748;BME280;1889;50.058;8.688;2024-01-11T05:56:10;101592.09;;;2.25;47.98
3748;BME280;1889;50.058;8.688;2024-01-11T05:58:40;101600.53;;;1.99;48.36
3748;BME280;1889;50.058;8.688;2024-01-11T06:01:08;101596.20;;;2.09;48.39
3748;BME280;1889;50.058;8.688;2024-01-11T06:03:37;101600.91;;;2.08;48.30
3748;BME280;1889;50.058;8.688;2024-01-11T06:06:07;101607.09;;;2.00;48.26
3748;BME280;1889;50.058;8.688;2024-01-11T06:08:36;101600.71;;;2.03;48.06
3748;BME280;1889;50.058;8.688;2024-01-11T06:11:05;101621.78;;;2.00;48.06
3748;BME280;1889;50.058;8.688;2024-01-11T06:13:35;101622.11;;;1.46;48.87
3748;BME280;1889;50.058;8.688;2024-01-11T06:16:04;101631.46;;;1.62;48.77
3748;BME280;1889;50.058;8.688;2024-01-11T06:18:34;101640.98;;;1.63;48.47
3748;BME280;1889;50.058;8.688;2024-01-11T06:21:03;101645.77;;;0.67;50.05
3748;BME280;1889;50.058;8.688;2024-01-11T06:23:32;101639.47;;;1.09;49.75
3748;BME280;1889;50.058;8.688;2024-01-11T06:26:02;101644.70;;;1.39;49.01
3748;BME280;1889;50.058;8.688;2024-01-11T06:28:31;101650.59;;;1.45;48.94
3748;BME280;1889;50.058;8.688;2024-01-11T06:31:00;101648.18;;;1.59;48.68
3748;BME280;1889;50.058;8.688;2024-01-11T06:33:29;101653.71;;;1.47;49.10
3748;BME280;1889;50.058;8.688;2024-01-11T06:35:59;101645.59;;;1.59;48.87
3748;BME280;1889;50.058;8.688;2024-01-11T06:38:28;101665.86;;;1.58;48.99
3748;BME280;1889;50.058;8.688;2024-01-11T06:40:57;101666.34;;;1.59;48.98
3748;BME280;1889;50.058;8.688;2024-01-11T06:43:26;101663.37;;;1.71;48.76
3748;BME280;1889;50.058;8.688;2024-01-11T06:45:56;101653.70;;;1.67;48.89
3748;BME280;1889;50.058;8.688;2024-01-11T06:48:25;101664.40;;;1.74;48.60
3748;BME280;1889;50.058;8.688;2024-01-11T06:50:54;101663.01;;;1.42;49.16
3748;BME280;1889;50.058;8.688;2024-01-11T06:53:22;101662.75;;;1.36;49.10
3748;BME280;1889;50.058;8.688;2024-01-11T06:55:52;101656.34;;;1.38;49.02
3748;BME280;1889;50.058;8.688;2024-01-11T06:58:23;101668.95;;;1.11;49.19
3748;BME280;1889;50.058;8.688;2024-01-11T07:00:52;101674.12;;;1.01;49.88
3748;BME280;1889;50.058;8.688;2024-01-11T07:03:21;101671.53;;;1.40;48.98
3748;BME280;1889;50.058;8.688;2024-01-11T07:05:50;101673.23;;;1.49;48.71
3748;BME280;1889;50.058;8.688;2024-01-11T07:08:20;101664.05;;;1.46;48.79
3748;BME280;1889;50.058;8.688;2024-01-11T07:10:50;101665.41;;;1.38;49.10
3748;BME280;1889;50.058;8.688;2024-01-11T07:13:20;101668.38;;;1.47;48.96
3748;BME280;1889;50.058;8.688;2024-01-11T07:15:49;101670.53;;;1.46;48.98
3748;BME280;1889;50.058;8.688;2024-01-11T07:18:19;101676.05;;;1.34;49.33
3748;BME280;1889;50.058;8.688;2024-01-11T07:20:48;101671.75;;;1.35;49.53
3748;BME280;1889;50.058;8.688;2024-01-11T07:23:18;101669.48;;;1.23;49.54
3748;BME280;1889;50.058;8.688;2024-01-11T07:25:47;101680.19;;;1.02;49.93
3748;BME280;1889;50.058;8.688;2024-01-11T07:28:16;101678.43;;;1.10;50.07
3748;BME280;1889;50.058;8.688;2024-01-11T07:30:46;101678.72;;;1.36;49.30
3748;BME280;1889;50.058;8.688;2024-01-11T07:33:14;101673.38;;;1.33;49.37
3748;BME280;1889;50.058;8.688;2024-01-11T07:35:43;101676.86;;;1.33;49.48
3748;BME280;1889;50.058;8.688;2024-01-11T07:38:13;101680.46;;;1.46;49.10
3748;BME280;1889;50.058;8.688;2024-01-11T07:40:42;101680.02;;;1.36;49.28
3748;BME280;1889;50.058;8.688;2024-01-11T07:43:11;101681.57;;;1.42;49.30
3748;BME280;1889;50.058;8.688;2024-01-11T07:45:42;101690.65;;;1.42;48.90
3748;BME280;1889;50.058;8.688;2024-01-11T07:48:11;101698.91;;;1.43;48.81
3748;BME280;1889;50.058;8.688;2024-01-11T07:50:41;101692.83;;;1.42;48.97
3748;BME280;1889;50.058;8.688;2024-01-11T07:53:10;101692.83;;;1.33;49.28
3748;BME280;1889;50.058;8.688;2024-01-11T07:55:40;101676.23;;;1.39;49.16
3748;BME280;1889;50.058;8.688;2024-01-11T07:58:08;101685.25;;;1.18;49.48
3748;BME280;1889;50.058;8.688;2024-01-11T08:00:39;101683.91;;;1.36;49.38
3748;BME280;1889;50.058;8.688;2024-01-11T08:03:07;101684.50;;;1.40;49.12
3748;BME280;1889;50.058;8.688;2024-01-11T08:05:37;101683.07;;;1.18;49.57
3748;BME280;1889;50.058;8.688;2024-01-11T08:08:05;101680.33;;;1.14;49.86
3748;BME280;1889;50.058;8.688;2024-01-11T08:10:34;101667.30;;;1.32;49.81
3748;BME280;1889;50.058;8.688;2024-01-11T08:13:03;101673.52;;;1.26;49.74
3748;BME280;1889;50.058;8.688;2024-01-11T08:15:32;101670.38;;;1.33;49.96
3748;BME280;1889;50.058;8.688;2024-01-11T08:18:02;101663.67;;;1.48;49.64
3748;BME280;1889;50.058;8.688;2024-01-11T08:20:32;101680.94;;;1.57;49.59
3748;BME280;1889;50.058;8.688;2024-01-11T08:23:01;101675.56;;;1.62;49.56
3748;BME280;1889;50.058;8.688;2024-01-11T08:25:31;101674.30;;;1.73;49.23
3748;BME280;1889;50.058;8.688;2024-01-11T08:28:00;101672.98;;;1.83;49.21
3748;BME280;1889;50.058;8.688;2024-01-11T08:30:30;101677.13;;;1.89;48.66
3748;BME280;1889;50.058;8.688;2024-01-11T08:32:59;101689.46;;;1.64;48.95
3748;BME280;1889;50.058;8.688;2024-01-11T08:35:28;101684.27;;;1.64;49.41
3748;BME280;1889;50.058;8.688;2024-01-11T08:37:58;101683.94;;;1.66;49.13
3748;BME280;1889;50.058;8.688;2024-01-11T08:40:27;101677.53;;;1.58;49.51
3748;BME280;1889;50.058;8.688;2024-01-11T08:42:56;101678.27;;;1.75;49.36
3748;BME280;1889;50.058;8.688;2024-01-11T08:45:26;101673.48;;;1.95;48.79
3748;BME280;1889;50.058;8.688;2024-01-11T08:47:57;101687.48;;;2.08;48.44
3748;BME280;1889;50.058;8.688;2024-01-11T08:50:26;101688.56;;;2.04;48.29
3748;BME280;1889;50.058;8.688;2024-01-11T08:52:56;101698.47;;;1.72;48.83
3748;BME280;1889;50.058;8.688;2024-01-11T08:55:25;101708.43;;;1.82;48.93
3748;BME280;1889;50.058;8.688;2024-01-11T08:57:54;101712.88;;;1.85;48.63
3748;BME280;1889;50.058;8.688;2024-01-11T09:00:25;101720.73;;;1.77;48.96
3748;BME280;1889;50.058;8.688;2024-01-11T09:02:54;101727.97;;;1.74;48.95
3748;BME280;1889;50.058;8.688;2024-01-11T09:05:23;101727.00;;;1.82;48.85
3748;BME280;1889;50.058;8.688;2024-01-11T09:07:52;101733.74;;;1.98;48.46
3748;BME280;1889;50.058;8.688;2024-01-11T09:10:22;101732.03;;;1.98;48.62
3748;BME280;1889;50.058;8.688;2024-01-11T09:12:51;101724.10;;;1.95;48.41
3748;BME280;1889;50.058;8.688;2024-01-11T09:15:21;101719.96;;;1.79;48.79
3748;BME280;1889;50.058;8.688;2024-01-11T09:17:50;101730.03;;;1.43;49.53
3748;BME280;1889;50.058;8.688;2024-01-11T09:20:19;101731.52;;;1.47;49.71
3748;BME280;1889;50.058;8.688;2024-01-11T09:22:48;101719.85;;;1.57;49.13
3748;BME280;1889;50.058;8.688;2024-01-11T09:25:17;101712.81;;;1.64;49.32
3748;BME280;1889;50.058;8.688;2024-01-11T09:27:47;101714.42;;;0.95;50.27
3748;BME280;1889;50.058;8.688;2024-01-11T09:30:17;101705.17;;;1.38;49.87
3748;BME280;1889;50.058;8.688;2024-01-11T09:32:46;101702.44;;;1.74;49.45
3748;BME280;1889;50.058;8.688;2024-01-11T09:35:15;101716.22;;;0.43;51.13
3748;BME280;1889;50.058;8.688;2024-01-11T09:37:44;101717.52;;;0.60;51.73
3748;BME280;1889;50.058;8.688;2024-01-11T09:40:14;101708.67;;;1.29;50.36
3748;BME280;1889;50.058;8.688;2024-01-11T09:42:45;101720.33;;;1.20;50.21
3748;BME280;1889;50.058;8.688;2024-01-11T09:45:14;101726.92;;;1.03;50.87
3748;BME280;1889;50.058;8.688;2024-01-11T09:47:46;101721.52;;;1.45;50.26
3748;BME280;1889;50.058;8.688;2024-01-11T09:50:16;101725.74;;;1.53;49.97
3748;BME280;1889;50.058;8.688;2024-01-11T09:52:50;101732.91;;;1.02;50.87
3748;BME280;1889;50.058;8.688;2024-01-11T09:55:20;101731.65;;;1.31;50.62
3748;BME280;1889;50.058;8.688;2024-01-11T09:57:49;101731.47;;;1.36;50.32
3748;BME280;1889;50.058;8.688;2024-01-11T10:00:24;101734.86;;;1.26;50.55
3748;BME280;1889;50.058;8.688;2024-01-11T10:02:53;101739.34;;;1.10;51.03
3748;BME280;1889;50.058;8.688;2024-01-11T10:05:23;101742.95;;;1.04;51.46
3748;BME280;1889;50.058;8.688;2024-01-11T10:07:53;101744.91;;;1.37;50.64
3748;BME280;1889;50.058;8.688;2024-01-11T10:10:22;101737.41;;;1.53;50.46
3748;BME280;1889;50.058;8.688;2024-01-11T10:12:51;101737.75;;;1.61;50.50
3748;BME280;1889;50.058;8.688;2024-01-11T10:15:23;101732.19;;;1.91;49.94
3748;BME280;1889;50.058;8.688;2024-01-11T10:17:52;101735.28;;;2.13;49.73
3748;BME280;1889;50.058;8.688;2024-01-11T10:20:21;101725.52;;;2.17;49.43
3748;BME280;1889;50.058;8.688;2024-01-11T10:22:51;101713.53;;;2.00;49.27
3748;BME280;1889;50.058;8.688;2024-01-11T10:25:20;101713.12;;;1.91;49.53
3748;BME280;1889;50.058;8.688;2024-01-11T10:27:50;101704.10;;;1.62;49.70
3748;BME280;1889;50.058;8.688;2024-01-11T10:30:19;101698.91;;;1.62;50.56
3748;BME280;1889;50.058;8.688;2024-01-11T10:32:51;101705.83;;;2.13;49.89
3748;BME280;1889;50.058;8.688;2024-01-11T10:35:20;101696.84;;;1.65;50.52
3748;BME280;1889;50.058;8.688;2024-01-11T10:37:51;101698.86;;;2.12;49.82
3748;BME280;1889;50.058;8.688;2024-01-11T10:40:22;101696.72;;;2.02;49.98
3748;BME280;1889;50.058;8.688;2024-01-11T10:42:53;101686.05;;;1.65;50.71
3748;BME280;1889;50.058;8.688;2024-01-11T10:45:22;101694.86;;;2.09;50.25
3748;BME280;1889;50.058;8.688;2024-01-11T10:48:02;101701.69;;;1.76;50.46
3748;BME280;1889;50.058;8.688;2024-01-11T10:50:34;101698.86;;;1.91;50.26
3748;BME280;1889;50.058;8.688;2024-01-11T10:56:12;101686.23;;;2.30;49.95
3748;BME280;1889;50.058;8.688;2024-01-11T10:58:42;101681.56;;;2.01;50.08
3748;BME280;1889;50.058;8.688;2024-01-11T11:01:12;101687.66;;;2.13;49.95
3748;BME280;1889;50.058;8.688;2024-01-11T11:03:43;101686.02;;;1.94;50.80
3748;BME280;1889;50.058;8.688;2024-01-11T11:06:14;101688.24;;;2.26;50.30
3748;BME280;1889;50.058;8.688;2024-01-11T11:08:45;101680.63;;;2.31;50.19
3748;BME280;1889;50.058;8.688;2024-01-11T11:11:15;101679.95;;;2.05;50.43
3748;BME280;1889;50.058;8.688;2024-01-11T11:13:47;101679.98;;;2.37;49.96
3748;BME280;1889;50.058;8.688;2024-01-11T11:16:18;101671.13;;;2.32;50.13
3748;BME280;1889;50.058;8.688;2024-01-11T11:18:47;101668.59;;;2.33;49.96
3748;BME280;1889;50.058;8.688;2024-01-11T11:21:16;101672.38;;;2.52;49.67
3748;BME280;1889;50.058;8.688;2024-01-11T11:23:44;101679.38;;;2.64;49.38
3748;BME280;1889;50.058;8.688;2024-01-11T11:26:17;101677.25;;;2.88;49.17
3748;BME280;1889;50.058;8.688;2024-01-11T11:28:47;101672.59;;;2.25;49.90
3748;BME280;1889;50.058;8.688;2024-01-11T11:31:36;101683.55;;;1.87;50.29
3748;BME280;1889;50.058;8.688;2024-01-11T11:34:06;101685.88;;;1.91;50.54
3748;BME280;1889;50.058;8.688;2024-01-11T11:36:35;101682.13;;;1.54;50.99
3748;BME280;1889;50.058;8.688;2024-01-11T11:39:04;101682.05;;;2.13;50.75
3748;BME280;1889;50.058;8.688;2024-01-11T11:41:33;101672.72;;;2.07;50.63
3748;BME280;1889;50.058;8.688;2024-01-11T11:44:02;101664.24;;;2.54;50.03
3748;BME280;1889;50.058;8.688;2024-01-11T11:46:32;101657.75;;;2.88;49.54
3748;BME280;1889;50.058;8.688;2024-01-11T11:49:01;101655.19;;;3.12;49.26
3748;BME280;1889;50.058;8.688;2024-01-11T11:51:30;101651.55;;;3.30;49.09
3748;BME280;1889;50.058;8.688;2024-01-11T11:54:02;101651.30;;;3.35;48.71
3748;BME280;1889;50.058;8.688;2024-01-11T11:56:32;101660.17;;;3.53;48.72
3748;BME280;1889;50.058;8.688;2024-01-11T11:59:03;101653.94;;;3.73;47.70
3748;BME280;1889;50.058;8.688;2024-01-11T12:01:32;101659.94;;;3.83;47.54
3748;BME280;1889;50.058;8.688;2024-01-11T12:04:02;101654.94;;;4.02;46.65
3748;BME280;1889;50.058;8.688;2024-01-11T12:06:31;101647.22;;;3.67;45.80
3748;BME280;1889;50.058;8.688;2024-01-11T12:09:01;101634.63;;;3.54;47.21
3748;BME280;1889;50.058;8.688;2024-01-11T12:11:31;101629.99;;;3.83;47.10
3748;BME280;1889;50.058;8.688;2024-01-11T12:14:00;101630.88;;;3.84;45.79
3748;BME280;1889;50.058;8.688;2024-01-11T12:16:29;101638.27;;;3.84;46.90
3748;BME280;1889;50.058;8.688;2024-01-11T12:18:59;101634.22;;;3.55;47.39
3748;BME280;1889;50.058;8.688;2024-01-11T12:21:28;101632.20;;;3.97;47.07
3748;BME280;1889;50.058;8.688;2024-01-11T12:23:58;101636.28;;;3.90;46.87
3748;BME280;1889;50.058;8.688;2024-01-11T12:26:28;101639.44;;;3.80;46.80
3748;BME280;1889;50.058;8.688;2024-01-11T12:28:58;101634.07;;;3.88;46.56
3748;BME280;1889;50.058;8.688;2024-01-11T12:31:28;101632.30;;;4.27;46.63
3748;BME280;1889;50.058;8.688;2024-01-11T12:33:57;101636.05;;;4.22;45.94
3748;BME280;1889;50.058;8.688;2024-01-11T12:36:27;101629.27;;;4.54;46.12
3748;BME280;1889;50.058;8.688;2024-01-11T12:38:58;101620.88;;;4.36;45.44
3748;BME280;1889;50.058;8.688;2024-01-11T12:41:28;101623.42;;;3.82;46.81
3748;BME280;1889;50.058;8.688;2024-01-11T12:43:57;101620.92;;;4.10;46.84
3748;BME280;1889;50.058;8.688;2024-01-11T12:46:26;101624.36;;;4.36;46.40
3748;BME280;1889;50.058;8.688;2024-01-11T12:48:56;101627.16;;;4.42;46.06
3748;BME280;1889;50.058;8.688;2024-01-11T12:51:26;101608.20;;;4.34;46.06
3748;BME280;1889;50.058;8.688;2024-01-11T12:53:57;101607.05;;;4.67;45.97
3748;BME280;1889;50.058;8.688;2024-01-11T12:56:26;101608.64;;;4.76;44.83
3748;BME280;1889;50.058;8.688;2024-01-11T12:59:06;101611.20;;;4.46;45.21
3748;BME280;1889;50.058;8.688;2024-01-11T13:01:37;101604.55;;;4.70;45.25
3748;BME280;1889;50.058;8.688;2024-01-11T13:04:09;101603.37;;;4.74;45.46
3748;BME280;1889;50.058;8.688;2024-01-11T13:06:39;101591.63;;;4.74;44.86
3748;BME280;1889;50.058;8.688;2024-01-11T13:09:08;101595.59;;;5.06;44.72
3748;BME280;1889;50.058;8.688;2024-01-11T13:11:37;101600.06;;;5.10;44.70
3748;BME280;1889;50.058;8.688;2024-01-11T13:14:07;101597.49;;;4.81;44.81
3748;BME280;1889;50.058;8.688;2024-01-11T13:16:38;101595.70;;;4.36;44.66
3748;BME280;1889;50.058;8.688;2024-01-11T13:19:07;101596.14;;;3.83;45.60
3748;BME280;1889;50.058;8.688;2024-01-11T13:21:38;101594.39;;;4.36;45.51
3748;BME280;1889;50.058;8.688;2024-01-11T13:24:08;101593.58;;;4.81;45.06
3748;BME280;1889;50.058;8.688;2024-01-11T13:26:38;101591.81;;;4.80;44.26
3748;BME280;1889;50.058;8.688;2024-01-11T13:29:08;101592.66;;;5.09;44.73
3748;BME280;1889;50.058;8.688;2024-01-11T13:31:39;101585.20;;;4.63;43.78
3748;BME280;1889;50.058;8.688;2024-01-11T13:34:09;101586.81;;;4.30;45.43
3748;BME280;1889;50.058;8.688;2024-01-11T13:36:44;101589.00;;;4.88;45.08